sensor_id;sensor_type;location;lat;lon;timestamp;P1;durP1;ratioP1;P2;durP2;ratioP2
14740;SDS011;7462;53.530;9.414;2022-09-09T00:01:49;20.50;;;18.53;;
14740;SDS011;7462;53.530;9.414;2022-09-09T00:04:24;21.80;;;19.47;;
14740;SDS011;7462;53.530;9.414;2022-09-09T00:06:57;19.77;;;17.93;;
14740;SDS011;7462;53.530;9.414;2022-09-09T00:09:30;19.43;;;17.63;;
14740;SDS011;7462;53.530;9.414;2022-09-09T00:12:05;19.80;;;17.90;;
14740;SDS011;7462;53.530;9.414;2022-09-09T00:14:41;21.27;;;19.07;;
14740;SDS011;7462;53.530;9.414;2022-09-09T00:17:18;21.47;;;19.37;;
14740;SDS011;7462;53.530;9.414;2022-09-09T00:20:00;20.57;;;18.57;;
14740;SDS011;7462;53.530;9.414;2022-09-09T00:22:34;20.77;;;18.77;;
14740;SDS011;7462;53.530;9.414;2022-09-09T00:25:08;19.53;;;17.63;;
14740;SDS011;7462;53.530;9.414;2022-09-09T00:27:40;20.60;;;18.57;;
14740;SDS011;7462;53.530;9.414;2022-09-09T00:30:16;20.23;;;18.23;;
14740;SDS011;7462;53.530;9.414;2022-09-09T00:32:49;18.83;;;16.93;;
14740;SDS011;7462;53.530;9.414;2022-09-09T00:35:21;21.00;;;18.90;;
14740;SDS011;7462;53.530;9.414;2022-09-09T00:37:53;19.50;;;17.67;;
14740;SDS011;7462;53.530;9.414;2022-09-09T00:40:25;19.53;;;17.47;;
14740;SDS011;7462;53.530;9.414;2022-09-09T00:43:09;20.17;;;17.73;;
14740;SDS011;7462;53.530;9.414;2022-09-09T00:48:55;19.90;;;17.90;;
14740;SDS011;7462;53.530;9.414;2022-09-09T00:51:35;19.27;;;17.27;;
14740;SDS011;7462;53.530;9.414;2022-09-09T00:54:17;19.10;;;17.17;;
14740;SDS011;7462;53.530;9.414;2022-09-09T00:57:13;19.70;;;17.67;;
14740;SDS011;7462;53.530;9.414;2022-09-09T01:00:18;20.33;;;18.00;;
14740;SDS011;7462;53.530;9.414;2022-09-09T01:03:07;20.70;;;18.50;;
14740;SDS011;7462;53.530;9.414;2022-09-09T01:05:48;20.80;;;18.70;;
14740;SDS011;7462;53.530;9.414;2022-09-09T01:08:31;22.03;;;19.03;;
14740;SDS011;7462;53.530;9.414;2022-09-09T01:11:22;20.63;;;18.47;;
14740;SDS011;7462;53.530;9.414;2022-09-09T01:13:56;20.70;;;18.57;;
14740;SDS011;7462;53.530;9.414;2022-09-09T01:16:33;21.43;;;19.33;;
14740;SDS011;7462;53.530;9.414;2022-09-09T01:19:01;22.13;;;19.73;;
14740;SDS011;7462;53.530;9.414;2022-09-09T01:21:35;22.70;;;20.10;;
14740;SDS011;7462;53.530;9.414;2022-09-09T01:24:20;22.97;;;19.87;;
14740;SDS011;7462;53.530;9.414;2022-09-09T01:27:05;20.73;;;18.63;;
14740;SDS011;7462;53.530;9.414;2022-09-09T01:29:35;20.27;;;18.17;;
14740;SDS011;7462;53.530;9.414;2022-09-09T01:35:07;20.97;;;18.70;;
14740;SDS011;7462;53.530;9.414;2022-09-09T01:37:41;21.07;;;18.17;;
14740;SDS011;7462;53.530;9.414;2022-09-09T01:40:09;21.30;;;19.10;;
14740;SDS011;7462;53.530;9.414;2022-09-09T01:42:39;20.90;;;18.80;;
14740;SDS011;7462;53.530;9.414;2022-09-09T01:45:08;22.03;;;18.50;;
14740;SDS011;7462;53.530;9.414;2022-09-09T01:47:36;20.37;;;18.20;;
14740;SDS011;7462;53.530;9.414;2022-09-09T01:50:16;21.57;;;18.67;;
14740;SDS011;7462;53.530;9.414;2022-09-09T01:52:45;19.50;;;17.50;;
14740;SDS011;7462;53.530;9.414;2022-09-09T01:55:19;19.90;;;17.80;;
14740;SDS011;7462;53.530;9.414;2022-09-09T01:58:17;19.93;;;17.93;;
14740;SDS011;7462;53.530;9.414;2022-09-09T02:01:00;22.63;;;18.77;;
14740;SDS011;7462;53.530;9.414;2022-09-09T02:03:33;22.70;;;19.53;;
14740;SDS011;7462;53.530;9.414;2022-09-09T02:06:13;20.67;;;18.57;;
14740;SDS011;7462;53.530;9.414;2022-09-09T02:08:53;19.93;;;17.93;;
14740;SDS011;7462;53.530;9.414;2022-09-09T02:11:24;19.60;;;17.70;;
14740;SDS011;7462;53.530;9.414;2022-09-09T02:14:04;18.77;;;16.63;;
14740;SDS011;7462;53.530;9.414;2022-09-09T02:16:40;20.77;;;18.27;;
14740;SDS011;7462;53.530;9.414;2022-09-09T02:19:13;21.20;;;18.13;;
14740;SDS011;7462;53.530;9.414;2022-09-09T02:21:59;19.17;;;17.07;;
14740;SDS011;7462;53.530;9.414;2022-09-09T02:24:28;18.03;;;16.27;;
14740;SDS011;7462;53.530;9.414;2022-09-09T02:27:12;18.23;;;16.33;;
14740;SDS011;7462;53.530;9.414;2022-09-09T02:29:44;18.13;;;16.40;;
14740;SDS011;7462;53.530;9.414;2022-09-09T02:32:17;18.90;;;16.83;;
14740;SDS011;7462;53.530;9.414;2022-09-09T02:34:48;19.50;;;17.40;;
14740;SDS011;7462;53.530;9.414;2022-09-09T02:37:20;18.87;;;16.80;;
14740;SDS011;7462;53.530;9.414;2022-09-09T02:39:52;18.53;;;16.50;;
14740;SDS011;7462;53.530;9.414;2022-09-09T02:42:21;18.57;;;16.67;;
14740;SDS011;7462;53.530;9.414;2022-09-09T02:44:53;18.97;;;17.03;;
14740;SDS011;7462;53.530;9.414;2022-09-09T02:47:25;20.83;;;17.33;;
14740;SDS011;7462;53.530;9.414;2022-09-09T02:50:05;19.07;;;16.20;;
14740;SDS011;7462;53.530;9.414;2022-09-09T02:52:46;18.60;;;16.57;;
14740;SDS011;7462;53.530;9.414;2022-09-09T02:55:23;18.53;;;16.53;;
14740;SDS011;7462;53.530;9.414;2022-09-09T02:57:58;18.47;;;15.87;;
14740;SDS011;7462;53.530;9.414;2022-09-09T03:00:32;18.97;;;16.97;;
14740;SDS011;7462;53.530;9.414;2022-09-09T03:03:02;17.97;;;16.07;;
14740;SDS011;7462;53.530;9.414;2022-09-09T03:05:32;17.93;;;15.90;;
14740;SDS011;7462;53.530;9.414;2022-09-09T03:08:00;19.90;;;16.80;;
14740;SDS011;7462;53.530;9.414;2022-09-09T03:10:29;19.07;;;16.43;;
14740;SDS011;7462;53.530;9.414;2022-09-09T03:12:57;23.27;;;16.80;;
14740;SDS011;7462;53.530;9.414;2022-09-09T03:15:29;17.90;;;15.90;;
14740;SDS011;7462;53.530;9.414;2022-09-09T03:17:59;16.93;;;15.20;;
14740;SDS011;7462;53.530;9.414;2022-09-09T03:20:28;18.13;;;15.97;;
14740;SDS011;7462;53.530;9.414;2022-09-09T03:22:58;18.40;;;16.50;;
14740;SDS011;7462;53.530;9.414;2022-09-09T03:25:27;17.37;;;15.57;;
14740;SDS011;7462;53.530;9.414;2022-09-09T03:27:56;19.50;;;17.13;;
14740;SDS011;7462;53.530;9.414;2022-09-09T03:30:25;17.77;;;15.87;;
14740;SDS011;7462;53.530;9.414;2022-09-09T03:32:55;17.93;;;16.03;;
14740;SDS011;7462;53.530;9.414;2022-09-09T03:35:30;19.03;;;16.00;;
14740;SDS011;7462;53.530;9.414;2022-09-09T03:37:59;17.20;;;15.40;;
14740;SDS011;7462;53.530;9.414;2022-09-09T03:40:30;17.13;;;15.37;;
14740;SDS011;7462;53.530;9.414;2022-09-09T03:42:58;17.13;;;15.33;;
14740;SDS011;7462;53.530;9.414;2022-09-09T03:45:26;17.57;;;15.23;;
14740;SDS011;7462;53.530;9.414;2022-09-09T03:47:54;18.43;;;15.30;;
14740;SDS011;7462;53.530;9.414;2022-09-09T03:50:23;19.00;;;16.20;;
14740;SDS011;7462;53.530;9.414;2022-09-09T03:52:53;16.67;;;14.93;;
14740;SDS011;7462;53.530;9.414;2022-09-09T03:55:21;18.33;;;15.73;;
14740;SDS011;7462;53.530;9.414;2022-09-09T03:57:49;18.57;;;15.70;;
14740;SDS011;7462;53.530;9.414;2022-09-09T04:00:18;18.63;;;15.97;;
14740;SDS011;7462;53.530;9.414;2022-09-09T04:02:50;16.87;;;14.93;;
14740;SDS011;7462;53.530;9.414;2022-09-09T04:05:20;17.03;;;15.20;;
14740;SDS011;7462;53.530;9.414;2022-09-09T04:07:48;16.73;;;15.03;;
14740;SDS011;7462;53.530;9.414;2022-09-09T04:10:18;16.50;;;14.73;;
14740;SDS011;7462;53.530;9.414;2022-09-09T04:12:47;16.63;;;14.93;;
14740;SDS011;7462;53.530;9.414;2022-09-09T04:15:15;16.10;;;14.17;;
14740;SDS011;7462;53.530;9.414;2022-09-09T04:17:45;17.03;;;13.83;;
14740;SDS011;7462;53.530;9.414;2022-09-09T04:20:13;16.43;;;13.93;;
14740;SDS011;7462;53.530;9.414;2022-09-09T04:22:41;17.43;;;14.47;;
14740;SDS011;7462;53.530;9.414;2022-09-09T04:25:10;16.33;;;14.63;;
14740;SDS011;7462;53.530;9.414;2022-09-09T04:27:39;15.80;;;14.10;;
14740;SDS011;7462;53.530;9.414;2022-09-09T04:30:09;15.10;;;13.37;;
14740;SDS011;7462;53.530;9.414;2022-09-09T04:32:40;15.30;;;13.80;;
14740;SDS011;7462;53.530;9.414;2022-09-09T04:35:08;16.63;;;13.30;;
14740;SDS011;7462;53.530;9.414;2022-09-09T04:37:36;16.43;;;14.53;;
14740;SDS011;7462;53.530;9.414;2022-09-09T04:40:04;15.57;;;13.80;;
14740;SDS011;7462;53.530;9.414;2022-09-09T04:42:36;15.47;;;13.97;;
14740;SDS011;7462;53.530;9.414;2022-09-09T04:45:06;15.73;;;13.70;;
14740;SDS011;7462;53.530;9.414;2022-09-09T04:47:37;14.77;;;13.20;;
14740;SDS011;7462;53.530;9.414;2022-09-09T04:50:06;15.07;;;13.23;;
14740;SDS011;7462;53.530;9.414;2022-09-09T04:52:35;15.47;;;13.03;;
14740;SDS011;7462;53.530;9.414;2022-09-09T04:55:04;15.63;;;13.93;;
14740;SDS011;7462;53.530;9.414;2022-09-09T04:57:34;14.20;;;12.73;;
14740;SDS011;7462;53.530;9.414;2022-09-09T05:00:02;13.20;;;11.90;;
14740;SDS011;7462;53.530;9.414;2022-09-09T05:02:38;15.67;;;13.00;;
14740;SDS011;7462;53.530;9.414;2022-09-09T05:05:06;16.27;;;13.50;;
14740;SDS011;7462;53.530;9.414;2022-09-09T05:07:35;13.67;;;11.80;;
14740;SDS011;7462;53.530;9.414;2022-09-09T05:10:03;14.77;;;12.50;;
14740;SDS011;7462;53.530;9.414;2022-09-09T05:12:32;15.53;;;12.33;;
14740;SDS011;7462;53.530;9.414;2022-09-09T05:15:00;13.83;;;12.43;;
14740;SDS011;7462;53.530;9.414;2022-09-09T05:17:29;13.67;;;12.07;;
14740;SDS011;7462;53.530;9.414;2022-09-09T05:19:59;13.47;;;12.00;;
14740;SDS011;7462;53.530;9.414;2022-09-09T05:22:29;14.33;;;12.10;;
14740;SDS011;7462;53.530;9.414;2022-09-09T05:24:57;14.97;;;12.53;;
14740;SDS011;7462;53.530;9.414;2022-09-09T05:27:26;13.77;;;10.70;;
14740;SDS011;7462;53.530;9.414;2022-09-09T05:29:54;12.50;;;11.27;;
14740;SDS011;7462;53.530;9.414;2022-09-09T05:32:23;14.50;;;12.43;;
14740;SDS011;7462;53.530;9.414;2022-09-09T05:34:52;13.00;;;11.50;;
14740;SDS011;7462;53.530;9.414;2022-09-09T05:37:22;12.53;;;11.20;;
14740;SDS011;7462;53.530;9.414;2022-09-09T05:39:50;12.80;;;10.70;;
14740;SDS011;7462;53.530;9.414;2022-09-09T05:42:19;12.20;;;10.93;;
14740;SDS011;7462;53.530;9.414;2022-09-09T05:44:47;12.07;;;9.83;;
14740;SDS011;7462;53.530;9.414;2022-09-09T05:47:17;11.47;;;10.23;;
14740;SDS011;7462;53.530;9.414;2022-09-09T05:49:45;11.60;;;10.40;;
14740;SDS011;7462;53.530;9.414;2022-09-09T05:52:13;11.87;;;10.67;;
14740;SDS011;7462;53.530;9.414;2022-09-09T05:54:42;11.70;;;10.50;;
14740;SDS011;7462;53.530;9.414;2022-09-09T05:57:11;11.37;;;9.50;;
14740;SDS011;7462;53.530;9.414;2022-09-09T05:59:45;13.53;;;10.50;;
14740;SDS011;7462;53.530;9.414;2022-09-09T06:02:13;11.57;;;9.20;;
14740;SDS011;7462;53.530;9.414;2022-09-09T06:04:41;11.23;;;9.33;;
14740;SDS011;7462;53.530;9.414;2022-09-09T06:07:10;10.77;;;9.63;;
14740;SDS011;7462;53.530;9.414;2022-09-09T06:09:40;10.50;;;9.03;;
14740;SDS011;7462;53.530;9.414;2022-09-09T06:12:11;12.20;;;8.63;;
14740;SDS011;7462;53.530;9.414;2022-09-09T06:14:39;11.20;;;8.43;;
14740;SDS011;7462;53.530;9.414;2022-09-09T06:17:12;9.17;;;8.27;;
14740;SDS011;7462;53.530;9.414;2022-09-09T06:19:40;11.40;;;9.23;;
14740;SDS011;7462;53.530;9.414;2022-09-09T06:22:08;9.90;;;8.23;;
14740;SDS011;7462;53.530;9.414;2022-09-09T06:24:38;8.97;;;8.07;;
14740;SDS011;7462;53.530;9.414;2022-09-09T06:27:08;8.67;;;7.77;;
14740;SDS011;7462;53.530;9.414;2022-09-09T06:29:37;12.13;;;8.00;;
14740;SDS011;7462;53.530;9.414;2022-09-09T06:32:05;10.00;;;7.90;;
14740;SDS011;7462;53.530;9.414;2022-09-09T06:34:34;9.90;;;8.23;;
14740;SDS011;7462;53.530;9.414;2022-09-09T06:37:03;9.83;;;7.90;;
14740;SDS011;7462;53.530;9.414;2022-09-09T06:39:38;9.10;;;7.60;;
14740;SDS011;7462;53.530;9.414;2022-09-09T06:42:06;9.10;;;7.90;;
14740;SDS011;7462;53.530;9.414;2022-09-09T06:44:48;12.03;;;7.70;;
14740;SDS011;7462;53.530;9.414;2022-09-09T06:47:23;9.40;;;8.50;;
14740;SDS011;7462;53.530;9.414;2022-09-09T06:49:52;8.50;;;7.70;;
14740;SDS011;7462;53.530;9.414;2022-09-09T06:52:20;11.33;;;7.77;;
14740;SDS011;7462;53.530;9.414;2022-09-09T06:54:49;14.60;;;7.80;;
14740;SDS011;7462;53.530;9.414;2022-09-09T06:57:18;10.50;;;7.40;;
14740;SDS011;7462;53.530;9.414;2022-09-09T07:00:04;10.07;;;7.83;;
14740;SDS011;7462;53.530;9.414;2022-09-09T07:02:33;8.97;;;7.47;;
14740;SDS011;7462;53.530;9.414;2022-09-09T07:05:06;9.70;;;7.20;;
14740;SDS011;7462;53.530;9.414;2022-09-09T07:07:35;8.23;;;7.47;;
14740;SDS011;7462;53.530;9.414;2022-09-09T07:10:05;8.37;;;7.47;;
14740;SDS011;7462;53.530;9.414;2022-09-09T07:12:36;8.27;;;7.47;;
14740;SDS011;7462;53.530;9.414;2022-09-09T07:15:08;7.70;;;7.00;;
14740;SDS011;7462;53.530;9.414;2022-09-09T07:17:40;10.47;;;7.53;;
14740;SDS011;7462;53.530;9.414;2022-09-09T07:20:08;8.90;;;7.27;;
14740;SDS011;7462;53.530;9.414;2022-09-09T07:22:36;8.30;;;7.37;;
14740;SDS011;7462;53.530;9.414;2022-09-09T07:25:05;8.67;;;7.73;;
14740;SDS011;7462;53.530;9.414;2022-09-09T07:27:36;8.67;;;6.67;;
14740;SDS011;7462;53.530;9.414;2022-09-09T07:30:05;7.70;;;7.00;;
14740;SDS011;7462;53.530;9.414;2022-09-09T07:32:34;8.47;;;7.60;;
14740;SDS011;7462;53.530;9.414;2022-09-09T07:35:02;10.37;;;7.70;;
14740;SDS011;7462;53.530;9.414;2022-09-09T07:37:31;9.73;;;7.97;;
14740;SDS011;7462;53.530;9.414;2022-09-09T07:39:59;8.17;;;6.37;;
14740;SDS011;7462;53.530;9.414;2022-09-09T07:42:29;9.80;;;7.67;;
14740;SDS011;7462;53.530;9.414;2022-09-09T07:44:58;7.33;;;6.47;;
14740;SDS011;7462;53.530;9.414;2022-09-09T07:47:27;7.87;;;7.00;;
14740;SDS011;7462;53.530;9.414;2022-09-09T07:49:55;9.47;;;6.67;;
14740;SDS011;7462;53.530;9.414;2022-09-09T07:52:29;7.40;;;6.77;;
14740;SDS011;7462;53.530;9.414;2022-09-09T07:55:00;8.30;;;6.00;;
14740;SDS011;7462;53.530;9.414;2022-09-09T07:57:31;9.67;;;5.93;;
14740;SDS011;7462;53.530;9.414;2022-09-09T08:00:02;7.20;;;6.50;;
14740;SDS011;7462;53.530;9.414;2022-09-09T08:02:37;7.23;;;6.00;;
14740;SDS011;7462;53.530;9.414;2022-09-09T08:05:07;9.30;;;5.93;;
14740;SDS011;7462;53.530;9.414;2022-09-09T08:07:37;6.87;;;5.57;;
14740;SDS011;7462;53.530;9.414;2022-09-09T08:10:06;7.07;;;5.40;;
14740;SDS011;7462;53.530;9.414;2022-09-09T08:12:36;6.73;;;5.20;;
14740;SDS011;7462;53.530;9.414;2022-09-09T08:15:14;7.20;;;4.80;;
14740;SDS011;7462;53.530;9.414;2022-09-09T08:17:43;7.23;;;5.20;;
14740;SDS011;7462;53.530;9.414;2022-09-09T08:20:12;6.17;;;5.00;;
14740;SDS011;7462;53.530;9.414;2022-09-09T08:22:40;7.20;;;5.73;;
14740;SDS011;7462;53.530;9.414;2022-09-09T08:25:08;6.03;;;4.83;;
14740;SDS011;7462;53.530;9.414;2022-09-09T08:27:37;7.17;;;4.50;;
14740;SDS011;7462;53.530;9.414;2022-09-09T08:30:06;7.97;;;4.97;;
14740;SDS011;7462;53.530;9.414;2022-09-09T08:32:36;4.90;;;4.37;;
14740;SDS011;7462;53.530;9.414;2022-09-09T08:35:09;5.93;;;4.00;;
14740;SDS011;7462;53.530;9.414;2022-09-09T08:37:37;4.87;;;4.37;;
14740;SDS011;7462;53.530;9.414;2022-09-09T08:40:07;5.03;;;4.10;;
14740;SDS011;7462;53.530;9.414;2022-09-09T08:42:44;5.50;;;4.03;;
14740;SDS011;7462;53.530;9.414;2022-09-09T08:45:19;5.43;;;4.10;;
14740;SDS011;7462;53.530;9.414;2022-09-09T08:48:11;6.03;;;4.40;;
14740;SDS011;7462;53.530;9.414;2022-09-09T08:50:49;4.10;;;3.43;;
14740;SDS011;7462;53.530;9.414;2022-09-09T08:53:26;6.90;;;3.70;;
14740;SDS011;7462;53.530;9.414;2022-09-09T08:55:57;6.47;;;3.40;;
14740;SDS011;7462;53.530;9.414;2022-09-09T08:58:41;5.37;;;3.23;;
14740;SDS011;7462;53.530;9.414;2022-09-09T09:01:23;4.10;;;2.93;;
14740;SDS011;7462;53.530;9.414;2022-09-09T09:04:06;4.07;;;2.90;;
14740;SDS011;7462;53.530;9.414;2022-09-09T09:06:42;3.50;;;2.43;;
14740;SDS011;7462;53.530;9.414;2022-09-09T09:09:20;2.13;;;1.80;;
14740;SDS011;7462;53.530;9.414;2022-09-09T09:11:53;3.30;;;1.80;;
14740;SDS011;7462;53.530;9.414;2022-09-09T09:14:33;3.17;;;1.70;;
14740;SDS011;7462;53.530;9.414;2022-09-09T09:17:06;3.03;;;1.83;;
14740;SDS011;7462;53.530;9.414;2022-09-09T09:19:43;2.93;;;1.73;;
14740;SDS011;7462;53.530;9.414;2022-09-09T09:22:14;3.63;;;1.70;;
14740;SDS011;7462;53.530;9.414;2022-09-09T09:24:51;6.17;;;1.83;;
14740;SDS011;7462;53.530;9.414;2022-09-09T09:27:26;3.13;;;1.70;;
14740;SDS011;7462;53.530;9.414;2022-09-09T09:30:00;3.00;;;1.83;;
14740;SDS011;7462;53.530;9.414;2022-09-09T09:32:54;3.57;;;1.80;;
14740;SDS011;7462;53.530;9.414;2022-09-09T09:35:27;2.53;;;2.00;;
14740;SDS011;7462;53.530;9.414;2022-09-09T09:37:55;1.70;;;1.60;;
14740;SDS011;7462;53.530;9.414;2022-09-09T09:40:48;3.40;;;1.70;;
14740;SDS011;7462;53.530;9.414;2022-09-09T09:43:20;2.40;;;1.40;;
14740;SDS011;7462;53.530;9.414;2022-09-09T09:45:51;2.77;;;1.70;;
14740;SDS011;7462;53.530;9.414;2022-09-09T09:48:39;2.20;;;1.30;;
14740;SDS011;7462;53.530;9.414;2022-09-09T09:51:09;3.13;;;1.20;;
14740;SDS011;7462;53.530;9.414;2022-09-09T09:53:42;1.93;;;1.10;;
14740;SDS011;7462;53.530;9.414;2022-09-09T09:56:13;1.80;;;1.20;;
14740;SDS011;7462;53.530;9.414;2022-09-09T09:58:48;2.00;;;1.23;;
14740;SDS011;7462;53.530;9.414;2022-09-09T10:01:26;3.10;;;1.10;;
14740;SDS011;7462;53.530;9.414;2022-09-09T10:03:58;2.07;;;1.03;;
14740;SDS011;7462;53.530;9.414;2022-09-09T10:06:31;1.70;;;0.80;;
14740;SDS011;7462;53.530;9.414;2022-09-09T10:09:01;2.97;;;0.83;;
14740;SDS011;7462;53.530;9.414;2022-09-09T10:11:34;2.20;;;0.93;;
14740;SDS011;7462;53.530;9.414;2022-09-09T10:14:18;1.30;;;0.80;;
14740;SDS011;7462;53.530;9.414;2022-09-09T10:16:52;1.87;;;0.70;;
14740;SDS011;7462;53.530;9.414;2022-09-09T10:19:33;3.57;;;1.00;;
14740;SDS011;7462;53.530;9.414;2022-09-09T10:22:07;2.13;;;0.97;;
14740;SDS011;7462;53.530;9.414;2022-09-09T10:24:57;2.47;;;1.10;;
14740;SDS011;7462;53.530;9.414;2022-09-09T10:27:43;2.23;;;1.20;;
14740;SDS011;7462;53.530;9.414;2022-09-09T10:30:28;3.07;;;1.00;;
14740;SDS011;7462;53.530;9.414;2022-09-09T10:33:10;2.37;;;1.37;;
14740;SDS011;7462;53.530;9.414;2022-09-09T10:35:47;1.77;;;1.40;;
14740;SDS011;7462;53.530;9.414;2022-09-09T10:38:28;2.57;;;1.87;;
14740;SDS011;7462;53.530;9.414;2022-09-09T10:41:06;2.73;;;1.50;;
14740;SDS011;7462;53.530;9.414;2022-09-09T10:43:54;2.70;;;2.00;;
14740;SDS011;7462;53.530;9.414;2022-09-09T10:46:35;2.37;;;1.63;;
14740;SDS011;7462;53.530;9.414;2022-09-09T10:49:13;3.63;;;1.80;;
14740;SDS011;7462;53.530;9.414;2022-09-09T10:51:55;4.20;;;2.37;;
14740;SDS011;7462;53.530;9.414;2022-09-09T10:54:35;4.03;;;2.20;;
14740;SDS011;7462;53.530;9.414;2022-09-09T10:57:13;2.67;;;1.90;;
14740;SDS011;7462;53.530;9.414;2022-09-09T10:59:46;3.93;;;2.33;;
14740;SDS011;7462;53.530;9.414;2022-09-09T11:02:19;3.40;;;1.97;;
14740;SDS011;7462;53.530;9.414;2022-09-09T11:04:55;4.10;;;2.57;;
14740;SDS011;7462;53.530;9.414;2022-09-09T11:07:28;4.43;;;2.30;;
14740;SDS011;7462;53.530;9.414;2022-09-09T11:10:04;3.13;;;1.83;;
14740;SDS011;7462;53.530;9.414;2022-09-09T11:12:41;5.17;;;2.30;;
14740;SDS011;7462;53.530;9.414;2022-09-09T11:15:14;3.37;;;1.90;;
14740;SDS011;7462;53.530;9.414;2022-09-09T11:17:46;3.63;;;1.80;;
14740;SDS011;7462;53.530;9.414;2022-09-09T11:20:17;5.07;;;1.60;;
14740;SDS011;7462;53.530;9.414;2022-09-09T11:22:47;2.50;;;1.60;;
14740;SDS011;7462;53.530;9.414;2022-09-09T11:25:21;3.07;;;2.00;;
14740;SDS011;7462;53.530;9.414;2022-09-09T11:30:56;2.47;;;1.60;;
14740;SDS011;7462;53.530;9.414;2022-09-09T11:33:50;3.80;;;2.17;;
14740;SDS011;7462;53.530;9.414;2022-09-09T11:36:38;4.37;;;1.67;;
14740;SDS011;7462;53.530;9.414;2022-09-09T11:42:27;3.73;;;1.70;;
14740;SDS011;7462;53.530;9.414;2022-09-09T11:44:55;4.77;;;1.80;;
14740;SDS011;7462;53.530;9.414;2022-09-09T11:47:24;4.50;;;1.70;;
14740;SDS011;7462;53.530;9.414;2022-09-09T11:50:06;4.17;;;1.50;;
14740;SDS011;7462;53.530;9.414;2022-09-09T11:53:03;3.07;;;1.57;;
14740;SDS011;7462;53.530;9.414;2022-09-09T11:56:09;3.77;;;1.60;;
14740;SDS011;7462;53.530;9.414;2022-09-09T11:58:42;3.27;;;1.40;;
14740;SDS011;7462;53.530;9.414;2022-09-09T12:01:26;2.60;;;1.50;;
14740;SDS011;7462;53.530;9.414;2022-09-09T12:04:04;3.97;;;1.83;;
14740;SDS011;7462;53.530;9.414;2022-09-09T12:06:49;5.20;;;1.70;;
14740;SDS011;7462;53.530;9.414;2022-09-09T12:09:22;2.33;;;1.37;;
14740;SDS011;7462;53.530;9.414;2022-09-09T12:12:04;4.97;;;1.67;;
14740;SDS011;7462;53.530;9.414;2022-09-09T12:14:36;4.17;;;1.90;;
14740;SDS011;7462;53.530;9.414;2022-09-09T12:17:09;3.80;;;1.60;;
14740;SDS011;7462;53.530;9.414;2022-09-09T12:19:46;2.40;;;1.40;;
14740;SDS011;7462;53.530;9.414;2022-09-09T12:22:17;2.60;;;1.40;;
14740;SDS011;7462;53.530;9.414;2022-09-09T12:24:54;2.70;;;1.20;;
14740;SDS011;7462;53.530;9.414;2022-09-09T12:27:28;6.70;;;1.70;;
14740;SDS011;7462;53.530;9.414;2022-09-09T12:30:07;3.67;;;1.83;;
14740;SDS011;7462;53.530;9.414;2022-09-09T12:32:38;2.70;;;1.40;;
14740;SDS011;7462;53.530;9.414;2022-09-09T12:35:09;3.73;;;1.40;;
14740;SDS011;7462;53.530;9.414;2022-09-09T12:37:39;4.20;;;1.40;;
14740;SDS011;7462;53.530;9.414;2022-09-09T12:40:19;2.57;;;1.23;;
14740;SDS011;7462;53.530;9.414;2022-09-09T12:42:49;5.07;;;1.37;;
14740;SDS011;7462;53.530;9.414;2022-09-09T12:45:20;4.40;;;1.60;;
14740;SDS011;7462;53.530;9.414;2022-09-09T12:47:52;3.73;;;1.60;;
14740;SDS011;7462;53.530;9.414;2022-09-09T12:50:24;3.00;;;1.60;;
14740;SDS011;7462;53.530;9.414;2022-09-09T12:52:54;5.83;;;1.70;;
14740;SDS011;7462;53.530;9.414;2022-09-09T12:55:27;5.83;;;1.70;;
14740;SDS011;7462;53.530;9.414;2022-09-09T12:57:57;3.33;;;1.60;;
14740;SDS011;7462;53.530;9.414;2022-09-09T13:00:27;3.50;;;1.70;;
14740;SDS011;7462;53.530;9.414;2022-09-09T13:02:57;5.97;;;2.33;;
14740;SDS011;7462;53.530;9.414;2022-09-09T13:05:28;5.30;;;1.80;;
14740;SDS011;7462;53.530;9.414;2022-09-09T13:08:02;4.20;;;1.63;;
14740;SDS011;7462;53.530;9.414;2022-09-09T13:10:31;6.60;;;2.00;;
14740;SDS011;7462;53.530;9.414;2022-09-09T13:13:21;4.23;;;1.80;;
14740;SDS011;7462;53.530;9.414;2022-09-09T13:15:52;5.03;;;1.90;;
14740;SDS011;7462;53.530;9.414;2022-09-09T13:18:23;3.47;;;1.93;;
14740;SDS011;7462;53.530;9.414;2022-09-09T13:20:54;5.67;;;1.77;;
14740;SDS011;7462;53.530;9.414;2022-09-09T13:23:25;4.77;;;1.63;;
14740;SDS011;7462;53.530;9.414;2022-09-09T13:25:56;3.30;;;1.63;;
14740;SDS011;7462;53.530;9.414;2022-09-09T13:28:26;4.57;;;1.90;;
14740;SDS011;7462;53.530;9.414;2022-09-09T13:31:01;3.20;;;1.53;;
14740;SDS011;7462;53.530;9.414;2022-09-09T13:33:32;3.67;;;1.67;;
14740;SDS011;7462;53.530;9.414;2022-09-09T13:36:04;4.57;;;2.10;;
14740;SDS011;7462;53.530;9.414;2022-09-09T13:38:35;3.20;;;1.57;;
14740;SDS011;7462;53.530;9.414;2022-09-09T13:41:05;5.33;;;1.80;;
14740;SDS011;7462;53.530;9.414;2022-09-09T13:43:36;4.37;;;1.53;;
14740;SDS011;7462;53.530;9.414;2022-09-09T13:46:21;3.37;;;1.63;;
14740;SDS011;7462;53.530;9.414;2022-09-09T13:48:54;2.80;;;1.60;;
14740;SDS011;7462;53.530;9.414;2022-09-09T13:51:26;2.57;;;1.33;;
14740;SDS011;7462;53.530;9.414;2022-09-09T13:54:03;3.57;;;1.30;;
14740;SDS011;7462;53.530;9.414;2022-09-09T13:56:32;2.53;;;1.30;;
14740;SDS011;7462;53.530;9.414;2022-09-09T13:59:01;2.10;;;1.27;;
14740;SDS011;7462;53.530;9.414;2022-09-09T14:01:31;3.83;;;1.37;;
14740;SDS011;7462;53.530;9.414;2022-09-09T14:04:01;3.47;;;1.50;;
14740;SDS011;7462;53.530;9.414;2022-09-09T14:06:29;2.53;;;1.20;;
14740;SDS011;7462;53.530;9.414;2022-09-09T14:08:58;2.83;;;1.33;;
14740;SDS011;7462;53.530;9.414;2022-09-09T14:11:26;5.33;;;1.33;;
14740;SDS011;7462;53.530;9.414;2022-09-09T14:13:54;3.43;;;1.20;;
14740;SDS011;7462;53.530;9.414;2022-09-09T14:16:22;4.00;;;1.43;;
14740;SDS011;7462;53.530;9.414;2022-09-09T14:18:55;1.83;;;1.00;;
14740;SDS011;7462;53.530;9.414;2022-09-09T14:21:23;3.30;;;1.10;;
14740;SDS011;7462;53.530;9.414;2022-09-09T14:23:51;2.73;;;0.97;;
14740;SDS011;7462;53.530;9.414;2022-09-09T14:26:20;3.40;;;0.80;;
14740;SDS011;7462;53.530;9.414;2022-09-09T14:28:48;1.47;;;0.60;;
14740;SDS011;7462;53.530;9.414;2022-09-09T14:31:21;2.03;;;0.70;;
14740;SDS011;7462;53.530;9.414;2022-09-09T14:33:49;1.57;;;0.50;;
14740;SDS011;7462;53.530;9.414;2022-09-09T14:36:20;0.70;;;0.60;;
14740;SDS011;7462;53.530;9.414;2022-09-09T14:38:49;1.40;;;0.50;;
14740;SDS011;7462;53.530;9.414;2022-09-09T14:41:18;0.60;;;0.40;;
14740;SDS011;7462;53.530;9.414;2022-09-09T14:43:48;1.17;;;0.50;;
14740;SDS011;7462;53.530;9.414;2022-09-09T14:46:18;0.90;;;0.50;;
14740;SDS011;7462;53.530;9.414;2022-09-09T14:48:47;1.63;;;0.50;;
14740;SDS011;7462;53.530;9.414;2022-09-09T14:51:16;1.50;;;0.40;;
14740;SDS011;7462;53.530;9.414;2022-09-09T14:53:48;0.73;;;0.60;;
14740;SDS011;7462;53.530;9.414;2022-09-09T14:56:19;2.50;;;0.60;;
14740;SDS011;7462;53.530;9.414;2022-09-09T14:58:49;1.97;;;0.87;;
14740;SDS011;7462;53.530;9.414;2022-09-09T15:01:18;1.37;;;0.67;;
14740;SDS011;7462;53.530;9.414;2022-09-09T15:03:48;2.50;;;0.70;;
14740;SDS011;7462;53.530;9.414;2022-09-09T15:06:18;1.50;;;0.80;;
14740;SDS011;7462;53.530;9.414;2022-09-09T15:08:49;1.53;;;0.50;;
14740;SDS011;7462;53.530;9.414;2022-09-09T15:11:18;1.53;;;0.70;;
14740;SDS011;7462;53.530;9.414;2022-09-09T15:13:50;1.33;;;0.60;;
14740;SDS011;7462;53.530;9.414;2022-09-09T15:16:20;1.20;;;0.83;;
14740;SDS011;7462;53.530;9.414;2022-09-09T15:18:50;2.27;;;0.73;;
14740;SDS011;7462;53.530;9.414;2022-09-09T15:21:21;1.43;;;0.70;;
14740;SDS011;7462;53.530;9.414;2022-09-09T15:23:51;1.73;;;0.80;;
14740;SDS011;7462;53.530;9.414;2022-09-09T15:26:20;2.17;;;1.17;;
14740;SDS011;7462;53.530;9.414;2022-09-09T15:28:48;1.63;;;0.83;;
14740;SDS011;7462;53.530;9.414;2022-09-09T15:31:17;1.63;;;0.80;;
14740;SDS011;7462;53.530;9.414;2022-09-09T15:33:47;2.27;;;1.33;;
14740;SDS011;7462;53.530;9.414;2022-09-09T15:36:16;2.50;;;0.80;;
14740;SDS011;7462;53.530;9.414;2022-09-09T15:38:46;2.73;;;1.00;;